createdAt,value
2022-08-16T00:01:24.591Z,30.00
2022-08-16T00:03:53.023Z,38.30
2022-08-16T00:06:20.204Z,32.35
2022-08-16T00:08:47.964Z,33.67
2022-08-16T00:11:15.536Z,38.95
2022-08-16T00:13:54.468Z,36.83
2022-08-16T00:17:06.715Z,39.70
2022-08-16T00:19:22.933Z,34.25
2022-08-16T00:21:53.288Z,36.20
2022-08-16T00:24:31.218Z,36.92
2022-08-16T00:26:59.571Z,38.30
2022-08-16T00:29:26.304Z,41.00
2022-08-16T00:31:59.642Z,40.47
2022-08-16T00:34:44.220Z,37.83
2022-08-16T00:37:18.505Z,37.95
2022-08-16T00:39:56.898Z,39.27
2022-08-16T00:42:30.595Z,43.42
2022-08-16T00:45:12.831Z,42.40
2022-08-16T00:47:49.534Z,39.97
2022-08-16T00:50:20.701Z,40.72
2022-08-16T00:52:51.135Z,40.07
2022-08-16T00:55:22.008Z,39.42
2022-08-16T00:57:59.723Z,37.58
2022-08-16T01:00:29.529Z,44.10
2022-08-16T01:02:59.706Z,39.40
2022-08-16T01:05:27.346Z,39.13
2022-08-16T01:07:54.936Z,44.22
2022-08-16T01:10:31.578Z,39.63
2022-08-16T01:13:04.509Z,40.95
2022-08-16T01:15:33.858Z,48.90
2022-08-16T01:18:01.839Z,42.20
2022-08-16T01:20:32.970Z,45.72
2022-08-16T01:23:13.712Z,44.05
2022-08-16T01:26:00.185Z,39.78
2022-08-16T01:28:38.654Z,40.97
2022-08-16T01:31:08.308Z,42.00
2022-08-16T01:33:35.801Z,42.28
2022-08-16T01:36:09.382Z,44.75
2022-08-16T01:38:46.880Z,37.15
2022-08-16T01:41:22.727Z,46.40
2022-08-16T01:43:53.905Z,42.77
2022-08-16T01:46:39.214Z,37.22
2022-08-16T01:49:43.654Z,32.60
2022-08-16T01:52:29.619Z,39.67
2022-08-16T01:54:58.232Z,42.97
2022-08-16T01:57:26.650Z,37.70
2022-08-16T01:59:54.656Z,37.63
2022-08-16T02:02:27.389Z,37.92
2022-08-16T02:04:57.495Z,38.80
2022-08-16T02:07:25.637Z,39.28
2022-08-16T02:09:58.523Z,40.90
2022-08-16T02:12:49.641Z,32.20
2022-08-16T02:15:17.135Z,30.92
2022-08-16T02:17:52.477Z,36.30
2022-08-16T02:20:20.046Z,34.95
2022-08-16T02:22:55.262Z,36.57
2022-08-16T02:25:22.242Z,35.25
2022-08-16T02:27:51.102Z,33.20
2022-08-16T02:30:35.840Z,34.40
2022-08-16T02:33:10.058Z,33.67
2022-08-16T02:35:53.749Z,32.27
2022-08-16T02:38:22.828Z,42.92
2022-08-16T02:40:51.446Z,39.33
2022-08-16T02:43:21.412Z,31.55
2022-08-16T02:45:53.542Z,37.03
2022-08-16T02:48:29.992Z,36.13
2022-08-16T02:51:06.043Z,36.88
2022-08-16T02:53:43.393Z,33.33
2022-08-16T02:56:15.140Z,37.70
2022-08-16T02:58:44.141Z,40.50
2022-08-16T03:01:24.972Z,38.30
2022-08-16T03:04:29.612Z,32.72
2022-08-16T03:06:48.307Z,37.10
2022-08-16T03:09:17.830Z,37.55
2022-08-16T03:11:44.977Z,35.83
2022-08-16T03:14:12.173Z,35.47
2022-08-16T03:16:42.288Z,40.42
2022-08-16T03:19:47.367Z,36.67
2022-08-16T03:22:28.264Z,32.78
2022-08-16T03:24:57.944Z,36.05
2022-08-16T03:27:31.381Z,35.27
2022-08-16T03:30:25.075Z,34.53
2022-08-16T03:32:52.213Z,35.15
2022-08-16T03:35:21.691Z,35.20
2022-08-16T03:38:02.600Z,32.00
2022-08-16T03:40:33.157Z,32.13
2022-08-16T03:43:19.690Z,31.73
2022-08-16T03:45:49.535Z,33.63
2022-08-16T03:48:20.888Z,36.47
2022-08-16T03:51:08.570Z,38.97
2022-08-16T03:53:37.703Z,34.10
2022-08-16T03:56:07.511Z,32.80
2022-08-16T03:58:36.940Z,33.78
2022-08-16T04:01:05.085Z,35.60
2022-08-16T04:03:32.790Z,32.67
2022-08-16T04:05:59.858Z,29.50
2022-08-16T04:08:31.134Z,35.45
2022-08-16T04:10:59.023Z,33.15
2022-08-16T04:14:01.800Z,34.50
2022-08-16T04:16:27.521Z,34.95
2022-08-16T04:19:02.807Z,34.13
2022-08-16T04:21:33.635Z,37.03
2022-08-16T04:24:02.100Z,37.25
2022-08-16T04:26:31.028Z,36.22
2022-08-16T04:29:15.165Z,35.05
2022-08-16T04:31:56.529Z,36.00
2022-08-16T04:34:30.792Z,35.70
2022-08-16T04:36:59.113Z,31.30
2022-08-16T04:39:46.079Z,37.35
2022-08-16T04:42:17.968Z,35.55
2022-08-16T04:44:54.272Z,36.23
2022-08-16T04:47:31.485Z,41.97
2022-08-16T04:50:01.272Z,35.47
2022-08-16T04:52:34.454Z,34.20
2022-08-16T04:55:08.340Z,37.50
2022-08-16T04:57:37.055Z,35.37
2022-08-16T05:00:32.575Z,32.80
2022-08-16T05:02:56.319Z,38.78
2022-08-16T05:05:25.880Z,37.72
2022-08-16T05:08:00.486Z,37.88
2022-08-16T05:10:29.592Z,40.67
2022-08-16T05:12:58.262Z,36.13
2022-08-16T05:15:25.543Z,37.88
2022-08-16T05:17:58.681Z,33.33
2022-08-16T05:20:39.130Z,30.80
2022-08-16T05:23:15.119Z,37.93
2022-08-16T05:25:48.794Z,34.15
2022-08-16T05:28:18.624Z,37.13
2022-08-16T05:30:45.986Z,35.58
2022-08-16T05:33:18.399Z,35.28
2022-08-16T05:35:54.976Z,31.70
2022-08-16T05:38:32.766Z,36.80
2022-08-16T05:41:07.049Z,29.42
2022-08-16T05:43:43.765Z,32.53
2022-08-16T05:46:29.899Z,31.23
2022-08-16T05:49:08.692Z,34.37
2022-08-16T05:51:39.821Z,30.02
2022-08-16T05:54:09.772Z,35.83
2022-08-16T05:56:39.287Z,36.80
2022-08-16T05:59:07.010Z,32.72
2022-08-16T06:01:38.955Z,36.93
2022-08-16T06:04:13.549Z,35.35
2022-08-16T06:06:56.930Z,33.22
2022-08-16T06:09:25.891Z,33.85
2022-08-16T06:12:11.427Z,34.45
2022-08-16T06:14:38.081Z,34.30
2022-08-16T06:17:07.258Z,34.05
2022-08-16T06:19:33.993Z,35.13
2022-08-16T06:22:02.626Z,36.92
2022-08-16T06:24:54.349Z,34.33
2022-08-16T06:27:15.973Z,42.03
2022-08-16T06:29:44.673Z,34.03
2022-08-16T06:32:27.807Z,32.75
2022-08-16T06:35:02.058Z,31.75
2022-08-16T06:37:36.945Z,32.13
2022-08-16T06:40:05.032Z,33.93
2022-08-16T06:42:47.740Z,36.15
2022-08-16T06:45:15.938Z,33.88
2022-08-16T06:47:54.455Z,32.35
2022-08-16T06:50:28.614Z,34.40
2022-08-16T06:53:08.609Z,33.97
2022-08-16T06:55:38.159Z,32.20
2022-08-16T06:58:08.392Z,33.35
2022-08-16T07:00:48.725Z,36.42
2022-08-16T07:03:26.841Z,33.80
2022-08-16T07:05:56.943Z,33.80
2022-08-16T07:08:27.431Z,32.00
2022-08-16T07:10:54.351Z,32.10
2022-08-16T07:13:43.962Z,32.75
2022-08-16T07:16:15.474Z,32.03
2022-08-16T07:19:01.305Z,34.67
2022-08-16T07:21:28.547Z,32.10
2022-08-16T07:24:29.469Z,36.05
2022-08-16T07:26:58.918Z,30.50
2022-08-16T07:29:31.686Z,36.42
2022-08-16T07:32:00.527Z,35.83
2022-08-16T07:34:35.393Z,29.10
2022-08-16T07:37:09.721Z,33.95
2022-08-16T07:39:43.305Z,30.40
2022-08-16T07:42:28.484Z,32.17
2022-08-16T07:44:58.112Z,29.87
2022-08-16T07:47:31.609Z,32.40
2022-08-16T07:49:59.737Z,28.40
2022-08-16T07:52:29.991Z,28.75
2022-08-16T07:54:57.715Z,29.83
2022-08-16T07:57:25.031Z,29.30
2022-08-16T07:59:52.987Z,34.00
2022-08-16T08:02:20.946Z,25.35
2022-08-16T08:04:48.499Z,30.95
2022-08-16T08:07:16.353Z,34.13
2022-08-16T08:09:43.962Z,32.80
2022-08-16T08:12:32.209Z,30.10
2022-08-16T08:14:59.645Z,31.10
2022-08-16T08:17:42.812Z,30.80
2022-08-16T08:20:13.277Z,26.95
2022-08-16T08:22:51.563Z,26.53
2022-08-16T08:25:18.490Z,33.45
2022-08-16T08:27:46.131Z,30.20
2022-08-16T08:30:51.571Z,28.88
2022-08-16T08:33:01.463Z,32.42
2022-08-16T08:35:28.620Z,26.37
2022-08-16T08:37:56.539Z,34.78
2022-08-16T08:40:27.232Z,29.75
2022-08-16T08:42:57.822Z,27.42
2022-08-16T08:45:46.882Z,29.15
2022-08-16T08:48:33.124Z,28.07
2022-08-16T08:51:03.857Z,32.25
2022-08-16T08:53:30.849Z,30.23
2022-08-16T08:55:59.276Z,25.38
2022-08-16T08:58:34.467Z,27.83
2022-08-16T09:01:03.633Z,28.10
2022-08-16T09:03:32.353Z,26.63
2022-08-16T09:06:00.578Z,26.25
2022-08-16T09:08:27.584Z,25.25
2022-08-16T09:10:59.279Z,23.45
2022-08-16T09:13:32.720Z,24.37
2022-08-16T09:15:59.648Z,22.27
2022-08-16T09:18:35.361Z,24.48
2022-08-16T09:21:07.176Z,24.67
2022-08-16T09:23:37.021Z,27.40
2022-08-16T09:26:44.399Z,25.43
2022-08-16T09:29:15.526Z,25.02
2022-08-16T09:31:41.992Z,21.90
2022-08-16T09:34:10.513Z,24.00
2022-08-16T09:36:45.958Z,25.00
2022-08-16T09:39:15.964Z,22.30
2022-08-16T09:41:43.198Z,19.25
2022-08-16T09:45:11.421Z,20.15
2022-08-16T09:47:10.719Z,22.90
2022-08-16T09:49:41.032Z,24.67
2022-08-16T09:52:09.842Z,24.63
2022-08-16T09:54:37.881Z,22.17
2022-08-16T09:57:05.117Z,27.70
2022-08-16T09:59:38.449Z,20.33
2022-08-16T10:02:26.290Z,21.27
2022-08-16T10:04:54.908Z,25.20
2022-08-16T10:07:22.111Z,22.63
2022-08-16T10:09:54.926Z,27.40
2022-08-16T10:12:43.808Z,27.52
2022-08-16T10:15:17.776Z,36.17
2022-08-16T10:18:01.035Z,23.67
2022-08-16T10:20:31.751Z,26.77
2022-08-16T10:23:05.500Z,21.95
2022-08-16T10:27:20.713Z,22.70
2022-08-16T10:28:29.109Z,30.17
2022-08-16T10:31:00.748Z,32.00
2022-08-16T10:33:33.256Z,25.42
2022-08-16T10:36:04.041Z,27.70
2022-08-16T10:38:32.986Z,30.38
2022-08-16T10:41:00.971Z,23.05
2022-08-16T10:43:30.979Z,22.90
2022-08-16T10:46:00.140Z,19.67
2022-08-16T10:48:29.294Z,15.75
2022-08-16T10:51:00.536Z,20.60
2022-08-16T10:53:32.819Z,18.92
2022-08-16T10:56:06.268Z,14.73
2022-08-16T10:58:52.374Z,18.63
2022-08-16T11:01:43.194Z,20.83
2022-08-16T11:05:04.611Z,16.67
2022-08-16T11:07:43.304Z,17.85
2022-08-16T11:09:43.904Z,16.03
2022-08-16T11:12:14.454Z,17.90
2022-08-16T11:15:11.320Z,16.20
2022-08-16T11:17:28.538Z,18.38
2022-08-16T11:20:36.775Z,15.75
2022-08-16T11:22:48.565Z,15.87
2022-08-16T11:28:09.856Z,16.95
2022-08-16T11:30:39.012Z,10.60
2022-08-16T11:33:07.144Z,9.20
2022-08-16T11:38:46.233Z,9.43
2022-08-16T11:41:09.871Z,11.02
2022-08-16T11:43:39.149Z,10.05
2022-08-16T11:46:43.656Z,13.02
2022-08-16T11:48:56.403Z,14.60
2022-08-16T11:51:23.045Z,9.32
2022-08-16T11:53:49.735Z,11.50
2022-08-16T11:56:28.575Z,10.30
2022-08-16T11:59:06.329Z,9.32
2022-08-16T12:01:44.432Z,10.50
2022-08-16T12:04:22.326Z,9.55
2022-08-16T12:06:49.956Z,11.38
2022-08-16T12:09:20.318Z,9.27
2022-08-16T12:11:47.326Z,6.80
2022-08-16T12:14:19.715Z,14.40
2022-08-16T12:16:55.551Z,11.15
2022-08-16T12:19:35.285Z,7.43
2022-08-16T12:22:05.870Z,7.03
2022-08-16T12:24:51.864Z,9.15
2022-08-16T12:27:23.015Z,14.33
2022-08-16T12:29:51.716Z,8.77
2022-08-16T12:32:35.878Z,11.68
2022-08-16T12:35:10.154Z,12.00
2022-08-16T12:37:36.847Z,12.63
2022-08-16T12:40:07.701Z,6.23
2022-08-16T12:42:54.119Z,7.85
2022-08-16T12:45:22.877Z,6.85
2022-08-16T12:48:31.477Z,5.72
2022-08-16T12:50:56.903Z,8.15
2022-08-16T12:53:24.176Z,7.17
2022-08-16T12:55:51.673Z,5.78
2022-08-16T12:58:48.614Z,5.70
2022-08-16T13:01:08.138Z,8.35
2022-08-16T13:03:40.550Z,11.85
2022-08-16T13:06:08.279Z,6.67
2022-08-16T13:08:34.888Z,7.60
2022-08-16T13:11:04.387Z,21.90
2022-08-16T13:13:33.971Z,9.13
2022-08-16T13:16:10.728Z,6.70
2022-08-16T13:18:52.573Z,7.97
2022-08-16T13:21:20.092Z,9.55
2022-08-16T13:23:55.470Z,12.02
2022-08-16T13:26:23.839Z,9.70
2022-08-16T13:28:50.647Z,6.68
2022-08-16T13:31:17.400Z,8.53
2022-08-16T13:33:44.438Z,8.57
2022-08-16T13:36:21.279Z,6.53
2022-08-16T13:39:00.277Z,5.82
2022-08-16T13:41:30.271Z,7.30
2022-08-16T13:43:59.397Z,7.90
2022-08-16T13:46:27.815Z,8.68
2022-08-16T13:48:55.914Z,7.70
2022-08-16T13:51:24.970Z,7.40
2022-08-16T13:54:02.589Z,13.25
2022-08-16T13:56:37.544Z,7.97
2022-08-16T13:59:19.511Z,7.30
2022-08-16T14:01:55.272Z,10.88
2022-08-16T14:04:31.378Z,8.85
2022-08-16T14:07:00.131Z,7.50
2022-08-16T14:09:28.514Z,6.03
2022-08-16T14:11:57.333Z,6.70
2022-08-16T14:14:29.047Z,9.70
2022-08-16T14:16:58.114Z,8.10
2022-08-16T14:19:26.392Z,8.57
2022-08-16T14:22:14.724Z,6.83
2022-08-16T14:24:47.469Z,8.70
2022-08-16T14:27:17.949Z,9.05
2022-08-16T14:29:49.300Z,8.50
2022-08-16T14:32:33.320Z,8.98
2022-08-16T14:35:07.461Z,6.03
2022-08-16T14:37:35.123Z,7.10
2022-08-16T14:40:03.389Z,8.27
2022-08-16T14:42:30.239Z,8.20
2022-08-16T14:44:57.010Z,9.70
2022-08-16T14:47:23.663Z,8.57
2022-08-16T14:49:52.370Z,9.73
2022-08-16T14:52:44.495Z,10.75
2022-08-16T14:55:11.674Z,11.60
2022-08-16T14:57:38.801Z,10.63
2022-08-16T15:00:11.139Z,7.77
2022-08-16T15:02:39.315Z,9.02
2022-08-16T15:05:09.243Z,9.10
2022-08-16T15:07:36.400Z,8.70
2022-08-16T15:10:08.624Z,10.13
2022-08-16T15:12:49.493Z,12.10
2022-08-16T15:15:20.481Z,10.48
2022-08-16T15:17:53.842Z,8.23
2022-08-16T15:20:22.593Z,11.20
2022-08-16T15:22:50.661Z,10.07
2022-08-16T15:25:29.241Z,7.63
2022-08-16T15:27:57.454Z,11.40
2022-08-16T15:30:57.013Z,9.50
2022-08-16T15:33:16.889Z,9.60
2022-08-16T15:35:45.005Z,12.32
2022-08-16T15:38:56.865Z,8.90
2022-08-16T15:41:01.195Z,10.63
2022-08-16T15:43:39.346Z,9.18
2022-08-16T15:46:35.821Z,7.50
2022-08-16T15:49:12.103Z,8.57
2022-08-16T15:51:39.286Z,8.17
2022-08-16T15:54:21.072Z,9.90
2022-08-16T15:56:55.170Z,8.05
2022-08-16T15:59:27.179Z,8.68
2022-08-16T16:01:55.941Z,8.43
2022-08-16T16:04:25.744Z,8.13
2022-08-16T16:06:54.935Z,10.50
2022-08-16T16:09:21.725Z,7.43
2022-08-16T16:12:01.418Z,10.60
2022-08-16T16:14:28.155Z,10.07
2022-08-16T16:16:55.079Z,8.70
2022-08-16T16:19:22.961Z,9.27
2022-08-16T16:21:53.990Z,9.00
2022-08-16T16:24:23.968Z,8.73
2022-08-16T16:26:57.513Z,8.07
2022-08-16T16:29:24.239Z,15.50
2022-08-16T16:31:59.753Z,11.52
2022-08-16T16:34:32.365Z,8.77
2022-08-16T16:37:02.622Z,9.57
2022-08-16T16:39:32.758Z,13.93
2022-08-16T16:41:59.997Z,14.00
2022-08-16T16:44:33.918Z,17.38
2022-08-16T16:47:03.598Z,9.88
2022-08-16T16:49:30.223Z,14.85
2022-08-16T16:52:06.618Z,12.45
2022-08-16T16:54:35.613Z,14.33
2022-08-16T16:57:02.474Z,11.40
2022-08-16T16:59:29.320Z,13.18
2022-08-16T17:02:41.258Z,11.85
2022-08-16T17:04:47.314Z,23.55
2022-08-16T17:07:14.141Z,15.27
2022-08-16T17:09:41.389Z,12.52
2022-08-16T17:12:20.074Z,15.93
2022-08-16T17:14:53.456Z,15.35
2022-08-16T17:17:20.097Z,18.85
2022-08-16T17:19:47.264Z,13.40
2022-08-16T17:22:19.867Z,18.73
2022-08-16T17:24:50.897Z,14.95
2022-08-16T17:27:32.503Z,20.40
2022-08-16T17:30:02.694Z,14.93
2022-08-16T17:32:33.984Z,17.43
2022-08-16T17:35:18.856Z,17.02
2022-08-16T17:37:51.662Z,14.27
2022-08-16T17:40:26.892Z,15.30
2022-08-16T17:43:15.457Z,11.98
2022-08-16T17:45:43.047Z,15.77
2022-08-16T17:48:09.913Z,11.30
2022-08-16T17:50:37.098Z,17.40
2022-08-16T17:53:04.688Z,15.07
2022-08-16T17:55:34.139Z,13.80
2022-08-16T17:58:00.829Z,14.33
2022-08-16T18:00:47.296Z,14.40
2022-08-16T18:03:17.268Z,14.55
2022-08-16T18:06:13.107Z,14.18
2022-08-16T18:08:41.484Z,20.30
2022-08-16T18:11:12.156Z,16.00
2022-08-16T18:13:43.059Z,16.08
2022-08-16T18:16:11.360Z,13.40
2022-08-16T18:18:38.202Z,12.88
2022-08-16T18:21:23.652Z,18.20
2022-08-16T18:23:50.280Z,18.87
2022-08-16T18:26:17.206Z,20.80
2022-08-16T18:28:43.947Z,13.45
2022-08-16T18:31:10.634Z,16.83
2022-08-16T18:33:43.390Z,16.65
2022-08-16T18:36:20.090Z,15.73
2022-08-16T18:38:47.076Z,15.52
2022-08-16T18:41:13.705Z,15.10
2022-08-16T18:44:22.256Z,17.13
2022-08-16T18:46:26.908Z,16.60
2022-08-16T18:48:53.516Z,15.03
2022-08-16T18:51:24.997Z,15.10
2022-08-16T18:53:52.267Z,16.70
2022-08-16T18:56:18.845Z,18.77
2022-08-16T18:58:45.636Z,14.75
2022-08-16T19:01:12.233Z,16.63
2022-08-16T19:03:38.796Z,17.05
2022-08-16T19:06:11.459Z,17.83
2022-08-16T19:08:42.305Z,15.82
2022-08-16T19:11:13.977Z,21.50
2022-08-16T19:13:44.233Z,17.37
2022-08-16T19:16:13.315Z,16.60
2022-08-16T19:18:40.360Z,19.30
2022-08-16T19:21:08.888Z,22.17
2022-08-16T19:23:37.609Z,18.45
2022-08-16T19:26:24.470Z,20.70
2022-08-16T19:28:58.865Z,21.27
2022-08-16T19:31:32.764Z,30.83
2022-08-16T19:33:59.451Z,30.70
2022-08-16T19:36:36.673Z,24.35
2022-08-16T19:39:13.606Z,22.23
2022-08-16T19:41:44.559Z,28.40
2022-08-16T19:44:11.449Z,30.63
2022-08-16T19:46:38.431Z,29.98
2022-08-16T19:49:05.339Z,27.88
2022-08-16T19:51:32.019Z,32.17
2022-08-16T19:53:58.807Z,27.58
2022-08-16T19:56:26.815Z,31.85
2022-08-16T20:01:46.673Z,30.02
2022-08-16T20:04:13.742Z,30.90
2022-08-16T20:06:43.074Z,42.83
2022-08-16T20:09:14.874Z,30.60
2022-08-16T20:11:46.741Z,32.75
2022-08-16T20:14:24.840Z,33.05
2022-08-16T20:16:57.729Z,39.77
2022-08-16T20:19:27.200Z,39.90
2022-08-16T20:21:54.139Z,38.83
2022-08-16T20:24:34.044Z,33.80
2022-08-16T20:27:02.445Z,33.30
2022-08-16T20:29:29.106Z,37.30
2022-08-16T20:31:56.217Z,30.42
2022-08-16T20:34:22.808Z,39.50
2022-08-16T20:36:49.413Z,38.65
2022-08-16T20:39:16.693Z,39.22
2022-08-16T20:41:43.542Z,42.50
2022-08-16T20:44:11.318Z,36.22
2022-08-16T20:46:39.061Z,42.30
2022-08-16T20:49:08.803Z,41.88
2022-08-16T20:51:46.859Z,44.85
2022-08-16T20:54:14.691Z,42.00
2022-08-16T20:56:41.394Z,38.65
2022-08-16T20:59:07.937Z,50.92
2022-08-16T21:01:45.824Z,51.03
2022-08-16T21:04:19.143Z,44.22
2022-08-16T21:06:54.385Z,43.10
2022-08-16T21:09:32.558Z,41.30
2022-08-16T21:12:01.575Z,44.10
2022-08-16T21:14:29.706Z,45.17
2022-08-16T21:16:56.561Z,46.03
2022-08-16T21:19:23.310Z,46.27
2022-08-16T21:21:50.019Z,45.25
2022-08-16T21:24:17.170Z,42.25
2022-08-16T21:26:53.050Z,40.88
2022-08-16T21:29:22.362Z,42.83
2022-08-16T21:31:51.673Z,48.37
2022-08-16T21:34:18.216Z,47.97
2022-08-16T21:36:44.942Z,43.95
2022-08-16T21:39:11.596Z,46.20
2022-08-16T21:41:40.997Z,48.95
2022-08-16T21:44:08.011Z,47.03
2022-08-16T21:46:34.656Z,45.22
2022-08-16T21:49:01.266Z,45.38
2022-08-16T21:51:27.968Z,49.55
2022-08-16T21:53:54.480Z,44.67
2022-08-16T21:56:21.047Z,41.23
2022-08-16T21:58:52.415Z,43.47
2022-08-16T22:01:21.109Z,39.15
2022-08-16T22:03:47.690Z,45.95
2022-08-16T22:06:14.799Z,43.85
2022-08-16T22:08:49.293Z,39.17
2022-08-16T22:11:21.957Z,43.13
2022-08-16T22:13:51.450Z,48.42
2022-08-16T22:16:32.052Z,44.20
2022-08-16T22:19:00.114Z,38.75
2022-08-16T22:21:27.230Z,47.73
2022-08-16T22:23:56.981Z,42.78
2022-08-16T22:26:39.620Z,44.35
2022-08-16T22:29:13.639Z,43.50
2022-08-16T22:31:42.047Z,47.22
2022-08-16T22:34:09.103Z,40.47
2022-08-16T22:36:36.413Z,43.35
2022-08-16T22:39:07.186Z,40.55
2022-08-16T22:41:35.845Z,39.83
2022-08-16T22:44:04.427Z,42.53
2022-08-16T22:46:31.799Z,36.50
2022-08-16T22:48:58.473Z,43.10
2022-08-16T22:51:26.946Z,43.92
2022-08-16T22:53:54.743Z,41.70
2022-08-16T22:56:22.479Z,44.65
2022-08-16T22:58:49.277Z,47.70
2022-08-16T23:01:18.075Z,41.20
2022-08-16T23:03:44.685Z,47.10
2022-08-16T23:06:12.373Z,42.78
2022-08-16T23:08:41.334Z,48.25
2022-08-16T23:11:12.508Z,47.37
2022-08-16T23:13:50.070Z,48.30
2022-08-16T23:16:21.989Z,45.63
2022-08-16T23:18:49.557Z,47.97
2022-08-16T23:21:18.143Z,52.22
2022-08-16T23:23:46.713Z,48.97
2022-08-16T23:26:46.919Z,50.08
2022-08-16T23:29:04.443Z,48.10
2022-08-16T23:31:32.619Z,51.60
2022-08-16T23:33:59.934Z,52.38
2022-08-16T23:36:26.557Z,51.83
2022-08-16T23:38:53.233Z,53.63
2022-08-16T23:41:20.319Z,55.55
2022-08-16T23:43:47.045Z,50.97
2022-08-16T23:46:17.017Z,56.13
2022-08-16T23:49:56.135Z,49.57
2022-08-16T23:51:31.392Z,48.45
2022-08-16T23:53:57.996Z,55.45
2022-08-16T23:56:25.720Z,54.20
2022-08-16T23:58:54.411Z,51.95
